Drogheda, Ireland
Current Conditions -  °F | °C
As of 7:00 AM on Saturday 25 Oct 2014 (Local Time) from EIDW Reporting Station
Rain Showers Rain Showers  
Wind Chill: 50°   Ceiling: 4700
Heat Index: 50°   Visibility: 6mi
Dew Point: 45°   Wind: 16mph
Humidity: 82%   Direction: 230°SW
Pressure: 29.83"   Gusts: NA
Location:  53.72°N, 6.36°W
Report Text: EIDW 250700Z 23014KT 9999 -SHRA FEW018 SCT024 BKN047 10/07 Q1010 NOSIG
Loading
Personal Weather Stations






























Interactive Weather Map
Tropical Storm Tracking
New forecast layout! Learn more

10-Day Weather Forecast

Advertisements
Track Severe Weather on mobile